sensor_id;sensor_type;location;lat;lon;timestamp;temperature;humidity
16976;DHT22;8604;48.148;-1.786;2023-03-01T00:00:06;1.60;99.90
16976;DHT22;8604;48.148;-1.786;2023-03-01T00:02:37;1.60;99.90
16976;DHT22;8604;48.148;-1.786;2023-03-01T00:05:06;1.60;99.90
16976;DHT22;8604;48.148;-1.786;2023-03-01T00:07:35;1.60;99.90
16976;DHT22;8604;48.148;-1.786;2023-03-01T00:10:04;1.60;99.90
16976;DHT22;8604;48.148;-1.786;2023-03-01T00:12:32;1.50;99.90
16976;DHT22;8604;48.148;-1.786;2023-03-01T00:15:02;1.50;99.90
16976;DHT22;8604;48.148;-1.786;2023-03-01T00:17:31;1.40;99.90
16976;DHT22;8604;48.148;-1.786;2023-03-01T00:20:00;1.40;99.90
16976;DHT22;8604;48.148;-1.786;2023-03-01T00:22:28;1.30;99.90
16976;DHT22;8604;48.148;-1.786;2023-03-01T00:24:56;1.30;99.90
16976;DHT22;8604;48.148;-1.786;2023-03-01T00:27:25;1.30;99.90
16976;DHT22;8604;48.148;-1.786;2023-03-01T00:29:53;1.20;99.90
16976;DHT22;8604;48.148;-1.786;2023-03-01T00:32:23;1.20;99.90
16976;DHT22;8604;48.148;-1.786;2023-03-01T00:34:52;1.10;99.90
16976;DHT22;8604;48.148;-1.786;2023-03-01T00:37:23;1.10;99.90
16976;DHT22;8604;48.148;-1.786;2023-03-01T00:39:52;1.10;99.90
16976;DHT22;8604;48.148;-1.786;2023-03-01T00:42:21;1.00;99.90
16976;DHT22;8604;48.148;-1.786;2023-03-01T00:44:50;1.00;99.90
16976;DHT22;8604;48.148;-1.786;2023-03-01T00:47:19;1.00;99.90
16976;DHT22;8604;48.148;-1.786;2023-03-01T00:49:49;1.00;99.90
16976;DHT22;8604;48.148;-1.786;2023-03-01T00:52:18;0.90;99.90
16976;DHT22;8604;48.148;-1.786;2023-03-01T00:54:47;0.90;99.90
16976;DHT22;8604;48.148;-1.786;2023-03-01T00:57:15;0.90;99.90
16976;DHT22;8604;48.148;-1.786;2023-03-01T00:59:44;0.90;99.90
16976;DHT22;8604;48.148;-1.786;2023-03-01T01:02:12;0.80;99.90
16976;DHT22;8604;48.148;-1.786;2023-03-01T01:04:40;0.80;99.90
16976;DHT22;8604;48.148;-1.786;2023-03-01T01:07:10;0.80;99.90
16976;DHT22;8604;48.148;-1.786;2023-03-01T01:09:39;0.80;99.90
16976;DHT22;8604;48.148;-1.786;2023-03-01T01:12:07;0.80;99.90
16976;DHT22;8604;48.148;-1.786;2023-03-01T01:14:36;0.80;99.90
16976;DHT22;8604;48.148;-1.786;2023-03-01T01:17:04;0.70;99.90
16976;DHT22;8604;48.148;-1.786;2023-03-01T01:19:33;0.70;99.90
16976;DHT22;8604;48.148;-1.786;2023-03-01T01:22:01;0.70;99.90
16976;DHT22;8604;48.148;-1.786;2023-03-01T01:24:32;0.70;99.90
16976;DHT22;8604;48.148;-1.786;2023-03-01T01:27:01;0.60;99.90
16976;DHT22;8604;48.148;-1.786;2023-03-01T01:29:29;0.60;99.90
16976;DHT22;8604;48.148;-1.786;2023-03-01T01:31:58;0.60;99.90
16976;DHT22;8604;48.148;-1.786;2023-03-01T01:34:26;0.60;99.90
16976;DHT22;8604;48.148;-1.786;2023-03-01T01:36:55;0.60;99.90
16976;DHT22;8604;48.148;-1.786;2023-03-01T01:39:23;0.60;99.90
16976;DHT22;8604;48.148;-1.786;2023-03-01T01:41:53;0.60;99.90
16976;DHT22;8604;48.148;-1.786;2023-03-01T01:44:23;0.60;99.90
16976;DHT22;8604;48.148;-1.786;2023-03-01T01:46:54;0.60;99.90
16976;DHT22;8604;48.148;-1.786;2023-03-01T01:49:28;0.60;99.90
16976;DHT22;8604;48.148;-1.786;2023-03-01T01:52:01;0.60;99.90
16976;DHT22;8604;48.148;-1.786;2023-03-01T01:54:36;0.60;99.90
16976;DHT22;8604;48.148;-1.786;2023-03-01T01:57:11;0.60;99.90
16976;DHT22;8604;48.148;-1.786;2023-03-01T01:59:42;0.50;99.90
16976;DHT22;8604;48.148;-1.786;2023-03-01T02:02:12;0.60;99.90
16976;DHT22;8604;48.148;-1.786;2023-03-01T02:04:41;0.60;99.90
16976;DHT22;8604;48.148;-1.786;2023-03-01T02:07:14;0.60;99.90
16976;DHT22;8604;48.148;-1.786;2023-03-01T02:09:46;0.60;99.90
16976;DHT22;8604;48.148;-1.786;2023-03-01T02:12:18;0.60;99.90
16976;DHT22;8604;48.148;-1.786;2023-03-01T02:14:47;0.60;99.90
16976;DHT22;8604;48.148;-1.786;2023-03-01T02:17:17;0.60;99.90
16976;DHT22;8604;48.148;-1.786;2023-03-01T02:19:55;0.60;99.90
16976;DHT22;8604;48.148;-1.786;2023-03-01T02:22:27;0.50;99.90
16976;DHT22;8604;48.148;-1.786;2023-03-01T02:25:07;0.60;99.90
16976;DHT22;8604;48.148;-1.786;2023-03-01T02:27:47;0.50;99.90
16976;DHT22;8604;48.148;-1.786;2023-03-01T02:30:21;0.50;99.90
16976;DHT22;8604;48.148;-1.786;2023-03-01T02:32:52;0.50;99.90
16976;DHT22;8604;48.148;-1.786;2023-03-01T02:35:20;0.50;99.90
16976;DHT22;8604;48.148;-1.786;2023-03-01T02:37:49;0.50;99.90
16976;DHT22;8604;48.148;-1.786;2023-03-01T02:40:19;0.50;99.90
16976;DHT22;8604;48.148;-1.786;2023-03-01T02:42:51;0.50;99.90
16976;DHT22;8604;48.148;-1.786;2023-03-01T02:45:22;0.40;99.90
16976;DHT22;8604;48.148;-1.786;2023-03-01T02:47:53;0.40;99.90
16976;DHT22;8604;48.148;-1.786;2023-03-01T02:50:34;0.40;99.90
16976;DHT22;8604;48.148;-1.786;2023-03-01T02:53:10;0.40;99.90
16976;DHT22;8604;48.148;-1.786;2023-03-01T02:55:41;0.40;99.90
16976;DHT22;8604;48.148;-1.786;2023-03-01T02:58:10;0.30;99.90
16976;DHT22;8604;48.148;-1.786;2023-03-01T03:00:42;0.30;99.90
16976;DHT22;8604;48.148;-1.786;2023-03-01T03:03:15;0.30;99.90
16976;DHT22;8604;48.148;-1.786;2023-03-01T03:05:44;0.30;99.90
16976;DHT22;8604;48.148;-1.786;2023-03-01T03:08:12;0.20;99.90
16976;DHT22;8604;48.148;-1.786;2023-03-01T03:10:43;0.30;99.90
16976;DHT22;8604;48.148;-1.786;2023-03-01T03:13:13;0.20;99.90
16976;DHT22;8604;48.148;-1.786;2023-03-01T03:15:44;0.20;99.90
16976;DHT22;8604;48.148;-1.786;2023-03-01T03:18:14;0.20;99.90
16976;DHT22;8604;48.148;-1.786;2023-03-01T03:20:43;0.10;99.90
16976;DHT22;8604;48.148;-1.786;2023-03-01T03:23:12;0.10;99.90
16976;DHT22;8604;48.148;-1.786;2023-03-01T03:25:40;0.10;99.90
16976;DHT22;8604;48.148;-1.786;2023-03-01T03:28:09;0.10;99.90
16976;DHT22;8604;48.148;-1.786;2023-03-01T03:30:39;0.10;99.90
16976;DHT22;8604;48.148;-1.786;2023-03-01T03:33:11;0.00;99.90
16976;DHT22;8604;48.148;-1.786;2023-03-01T03:35:43;0.00;99.90
16976;DHT22;8604;48.148;-1.786;2023-03-01T03:38:13;0.00;99.90
16976;DHT22;8604;48.148;-1.786;2023-03-01T03:40:47;0.00;99.90
16976;DHT22;8604;48.148;-1.786;2023-03-01T03:43:18;0.00;99.90
16976;DHT22;8604;48.148;-1.786;2023-03-01T03:45:48;-0.10;99.90
16976;DHT22;8604;48.148;-1.786;2023-03-01T03:48:19;-0.10;99.90
16976;DHT22;8604;48.148;-1.786;2023-03-01T03:50:50;-0.10;99.90
16976;DHT22;8604;48.148;-1.786;2023-03-01T03:53:18;-0.10;99.90
16976;DHT22;8604;48.148;-1.786;2023-03-01T03:55:47;-0.10;99.90
16976;DHT22;8604;48.148;-1.786;2023-03-01T03:58:19;-0.10;99.90
16976;DHT22;8604;48.148;-1.786;2023-03-01T04:00:50;-0.10;99.90
16976;DHT22;8604;48.148;-1.786;2023-03-01T04:03:21;-0.10;99.90
16976;DHT22;8604;48.148;-1.786;2023-03-01T04:05:51;-0.20;99.90
16976;DHT22;8604;48.148;-1.786;2023-03-01T04:08:20;-0.20;99.90
16976;DHT22;8604;48.148;-1.786;2023-03-01T04:10:53;-0.30;99.90
16976;DHT22;8604;48.148;-1.786;2023-03-01T04:13:25;-0.30;99.90
16976;DHT22;8604;48.148;-1.786;2023-03-01T04:15:53;-0.30;99.90
16976;DHT22;8604;48.148;-1.786;2023-03-01T04:18:24;-0.30;99.90
16976;DHT22;8604;48.148;-1.786;2023-03-01T04:20:53;-0.30;99.90
16976;DHT22;8604;48.148;-1.786;2023-03-01T04:23:22;-0.30;99.90
16976;DHT22;8604;48.148;-1.786;2023-03-01T04:25:53;-0.30;99.90
16976;DHT22;8604;48.148;-1.786;2023-03-01T04:28:22;-0.30;99.90
16976;DHT22;8604;48.148;-1.786;2023-03-01T04:30:52;-0.30;99.90
16976;DHT22;8604;48.148;-1.786;2023-03-01T04:33:23;-0.30;99.90
16976;DHT22;8604;48.148;-1.786;2023-03-01T04:35:51;-0.30;99.90
16976;DHT22;8604;48.148;-1.786;2023-03-01T04:38:20;-0.40;99.90
16976;DHT22;8604;48.148;-1.786;2023-03-01T04:40:49;-0.40;99.90
16976;DHT22;8604;48.148;-1.786;2023-03-01T04:43:17;-0.40;99.90
16976;DHT22;8604;48.148;-1.786;2023-03-01T04:45:45;-0.40;99.90
16976;DHT22;8604;48.148;-1.786;2023-03-01T04:48:14;-0.40;99.90
16976;DHT22;8604;48.148;-1.786;2023-03-01T04:50:43;-0.40;99.90
16976;DHT22;8604;48.148;-1.786;2023-03-01T04:53:12;-0.40;99.90
16976;DHT22;8604;48.148;-1.786;2023-03-01T04:55:40;-0.40;99.90
16976;DHT22;8604;48.148;-1.786;2023-03-01T04:58:09;-0.40;99.90
16976;DHT22;8604;48.148;-1.786;2023-03-01T05:00:37;-0.40;99.90
16976;DHT22;8604;48.148;-1.786;2023-03-01T05:03:06;-0.40;99.90
16976;DHT22;8604;48.148;-1.786;2023-03-01T05:05:36;-0.40;99.90
16976;DHT22;8604;48.148;-1.786;2023-03-01T05:08:07;-0.40;99.90
16976;DHT22;8604;48.148;-1.786;2023-03-01T05:10:36;-0.40;99.90
16976;DHT22;8604;48.148;-1.786;2023-03-01T05:13:05;-0.40;99.90
16976;DHT22;8604;48.148;-1.786;2023-03-01T05:15:34;-0.40;99.90
16976;DHT22;8604;48.148;-1.786;2023-03-01T05:18:04;-0.40;99.90
16976;DHT22;8604;48.148;-1.786;2023-03-01T05:20:38;-0.30;99.90
16976;DHT22;8604;48.148;-1.786;2023-03-01T05:23:08;-0.30;99.90
16976;DHT22;8604;48.148;-1.786;2023-03-01T05:25:36;-0.40;99.90
16976;DHT22;8604;48.148;-1.786;2023-03-01T05:28:11;-0.40;99.90
16976;DHT22;8604;48.148;-1.786;2023-03-01T05:30:40;-0.40;99.90
16976;DHT22;8604;48.148;-1.786;2023-03-01T05:33:08;-0.40;99.90
16976;DHT22;8604;48.148;-1.786;2023-03-01T05:35:41;-0.40;99.90
16976;DHT22;8604;48.148;-1.786;2023-03-01T05:38:12;-0.40;99.90
16976;DHT22;8604;48.148;-1.786;2023-03-01T05:40:41;-0.30;99.90
16976;DHT22;8604;48.148;-1.786;2023-03-01T05:43:10;-0.30;99.90
16976;DHT22;8604;48.148;-1.786;2023-03-01T05:45:40;-0.30;99.90
16976;DHT22;8604;48.148;-1.786;2023-03-01T05:48:10;-0.40;99.90
16976;DHT22;8604;48.148;-1.786;2023-03-01T05:50:41;-0.40;99.90
16976;DHT22;8604;48.148;-1.786;2023-03-01T05:53:13;-0.40;99.90
16976;DHT22;8604;48.148;-1.786;2023-03-01T05:55:42;-0.30;99.90
16976;DHT22;8604;48.148;-1.786;2023-03-01T05:58:13;-0.30;99.90
16976;DHT22;8604;48.148;-1.786;2023-03-01T06:00:43;-0.40;99.90
16976;DHT22;8604;48.148;-1.786;2023-03-01T06:03:12;-0.40;99.90
16976;DHT22;8604;48.148;-1.786;2023-03-01T06:05:41;-0.40;99.90
16976;DHT22;8604;48.148;-1.786;2023-03-01T06:08:12;-0.40;99.90
16976;DHT22;8604;48.148;-1.786;2023-03-01T06:10:40;-0.40;99.90
16976;DHT22;8604;48.148;-1.786;2023-03-01T06:13:09;-0.50;99.90
16976;DHT22;8604;48.148;-1.786;2023-03-01T06:15:37;-0.40;99.90
16976;DHT22;8604;48.148;-1.786;2023-03-01T06:18:06;-0.40;99.90
16976;DHT22;8604;48.148;-1.786;2023-03-01T06:20:34;-0.40;99.90
16976;DHT22;8604;48.148;-1.786;2023-03-01T06:23:03;-0.50;99.90
16976;DHT22;8604;48.148;-1.786;2023-03-01T06:25:32;-0.40;99.90
16976;DHT22;8604;48.148;-1.786;2023-03-01T06:28:01;-0.40;99.90
16976;DHT22;8604;48.148;-1.786;2023-03-01T06:30:31;-0.40;99.90
16976;DHT22;8604;48.148;-1.786;2023-03-01T06:32:59;-0.50;99.90
16976;DHT22;8604;48.148;-1.786;2023-03-01T06:35:30;-0.50;99.90
16976;DHT22;8604;48.148;-1.786;2023-03-01T06:38:00;-0.50;99.90
16976;DHT22;8604;48.148;-1.786;2023-03-01T06:40:29;-0.50;99.90
16976;DHT22;8604;48.148;-1.786;2023-03-01T06:42:59;-0.50;99.90
16976;DHT22;8604;48.148;-1.786;2023-03-01T22:34:04;2.50;99.90
16976;DHT22;8604;48.148;-1.786;2023-03-01T22:36:33;2.40;99.90
16976;DHT22;8604;48.148;-1.786;2023-03-01T22:39:01;2.40;99.90
16976;DHT22;8604;48.148;-1.786;2023-03-01T22:41:32;2.30;99.90
16976;DHT22;8604;48.148;-1.786;2023-03-01T22:44:01;2.30;99.90
16976;DHT22;8604;48.148;-1.786;2023-03-01T22:46:29;2.30;99.90
16976;DHT22;8604;48.148;-1.786;2023-03-01T22:48:58;2.30;99.90
16976;DHT22;8604;48.148;-1.786;2023-03-01T22:51:29;2.30;99.90
16976;DHT22;8604;48.148;-1.786;2023-03-01T22:53:58;2.30;99.90
16976;DHT22;8604;48.148;-1.786;2023-03-01T22:56:28;2.20;99.90
16976;DHT22;8604;48.148;-1.786;2023-03-01T22:59:03;2.20;99.90
16976;DHT22;8604;48.148;-1.786;2023-03-01T23:01:34;2.10;99.90
16976;DHT22;8604;48.148;-1.786;2023-03-01T23:04:02;2.10;99.90
16976;DHT22;8604;48.148;-1.786;2023-03-01T23:06:33;2.10;99.90
16976;DHT22;8604;48.148;-1.786;2023-03-01T23:09:17;2.10;99.90
16976;DHT22;8604;48.148;-1.786;2023-03-01T23:11:46;2.10;99.90
16976;DHT22;8604;48.148;-1.786;2023-03-01T23:14:14;2.10;99.90
16976;DHT22;8604;48.148;-1.786;2023-03-01T23:16:43;2.00;99.90
16976;DHT22;8604;48.148;-1.786;2023-03-01T23:19:11;2.00;99.90
16976;DHT22;8604;48.148;-1.786;2023-03-01T23:21:44;2.00;99.90
16976;DHT22;8604;48.148;-1.786;2023-03-01T23:24:19;2.00;99.90
16976;DHT22;8604;48.148;-1.786;2023-03-01T23:26:49;2.00;99.90
16976;DHT22;8604;48.148;-1.786;2023-03-01T23:29:22;1.90;99.90
16976;DHT22;8604;48.148;-1.786;2023-03-01T23:31:54;1.80;99.90
16976;DHT22;8604;48.148;-1.786;2023-03-01T23:34:23;1.80;99.90
16976;DHT22;8604;48.148;-1.786;2023-03-01T23:36:53;1.80;99.90
16976;DHT22;8604;48.148;-1.786;2023-03-01T23:39:24;1.80;99.90
16976;DHT22;8604;48.148;-1.786;2023-03-01T23:41:52;1.80;99.90
16976;DHT22;8604;48.148;-1.786;2023-03-01T23:44:21;1.80;99.90
16976;DHT22;8604;48.148;-1.786;2023-03-01T23:46:49;1.70;99.90
16976;DHT22;8604;48.148;-1.786;2023-03-01T23:49:19;1.70;99.90
16976;DHT22;8604;48.148;-1.786;2023-03-01T23:51:49;1.70;99.90
16976;DHT22;8604;48.148;-1.786;2023-03-01T23:54:21;1.70;99.90
16976;DHT22;8604;48.148;-1.786;2023-03-01T23:56:50;1.70;99.90
16976;DHT22;8604;48.148;-1.786;2023-03-01T23:59:19;1.70;99.90
